Pyrites, New York
Current Conditions -  °F | °C
As of 3:53 PM on Tuesday 27 Jan 2015 (Local Time) from KMSS Reporting Station
Clear Clear  
Wind Chill: -18°   Ceiling: Unl
Heat Index: -11°   Visibility: 10mi
Dew Point: -21°   Wind: 10mph
Humidity: 46%   Direction: 50°NE
Pressure: 30.07"   Gusts: NA
Location:  44.51°N, 75.19°W
Report Text: KMSS 272053Z AUTO 05009KT 10SM CLR M11/M21 A3007 RMK AO2 SLP192 T11111206 51001
Loading
Personal Weather Stations






























Interactive Weather Map New forecast layout! Learn more

10-Day Weather Forecast

Advertisements
Track Severe Weather on mobile